Time;durP1;ratioP1;P1;durP2;ratioP2;P2;SDS_P1;SDS_P2;PMS_P1;PMS_P2;Temp;Humidity;BMP_temperature;BMP_pressure;BME280_temperature;BME280_humidity;BME280_pressure;Samples;Min_cycle;Max_cycle;Signal;HPM_P1;HPM_P2
2021/05/25 00:00:29;;;;;;;3.90;3.60;;;15.40;83.20;;;;;;4984249;28;20206;-87
2021/05/25 00:03:19;;;;;;;4.30;3.57;;;15.40;83.20;;;;;;4986926;28;20212;-83
2021/05/25 00:05:47;;;;;;;4.13;3.83;;;15.30;83.10;;;;;;4984211;28;20508;-86
2021/05/25 00:08:16;;;;;;;3.93;3.53;;;15.50;83.20;;;;;;4996825;28;20215;-86
2021/05/25 00:10:46;;;;;;;5.20;3.77;;;15.50;83.10;;;;;;4980759;28;20606;-84
2021/05/25 00:13:15;;;;;;;5.03;3.73;;;15.50;83.30;;;;;;4970441;28;20216;-85
2021/05/25 00:15:46;;;;;;;4.37;3.97;;;15.50;83.30;;;;;;4982328;28;20219;-86
2021/05/25 00:18:15;;;;;;;4.30;3.90;;;15.50;83.30;;;;;;4975403;28;20868;-85
2021/05/25 00:20:48;;;;;;;4.37;3.97;;;15.50;83.30;;;;;;4979501;28;20201;-84
2021/05/25 00:23:17;;;;;;;4.47;4.10;;;15.40;83.40;;;;;;4984916;28;20192;-84
2021/05/25 00:25:47;;;;;;;4.80;4.20;;;15.50;83.50;;;;;;4984004;28;20266;-86
2021/05/25 00:28:16;;;;;;;4.13;3.70;;;15.40;83.50;;;;;;4982946;28;20629;-84
2021/05/25 00:30:45;;;;;;;4.67;3.93;;;15.50;83.70;;;;;;4977550;28;20236;-86
2021/05/25 00:33:17;;;;;;;4.27;3.97;;;15.40;83.80;;;;;;4972894;28;20646;-86
2021/05/25 00:35:53;;;;;;;4.27;3.73;;;15.30;83.80;;;;;;4982326;28;20214;-86
2021/05/25 00:38:22;;;;;;;10.43;4.40;;;15.40;83.80;;;;;;4987469;28;20268;-83
2021/05/25 00:40:52;;;;;;;4.37;3.97;;;15.40;83.70;;;;;;4985819;28;20197;-86
2021/05/25 00:43:22;;;;;;;4.30;4.00;;;15.40;83.60;;;;;;4989851;28;20183;-89
2021/05/25 00:45:50;;;;;;;4.63;4.23;;;15.40;83.80;;;;;;4983572;28;20559;-86
2021/05/25 00:48:20;;;;;;;4.80;4.40;;;15.50;83.80;;;;;;4980793;28;20796;-85
2021/05/25 00:50:50;;;;;;;7.53;4.53;;;15.40;83.70;;;;;;4983106;28;20204;-85
2021/05/25 00:53:19;;;;;;;4.93;4.43;;;15.40;83.80;;;;;;4976144;28;20205;-85
2021/05/25 00:55:51;;;;;;;4.90;4.20;;;15.50;83.80;;;;;;4975884;28;20295;-86
2021/05/25 00:58:20;;;;;;;4.73;4.33;;;15.40;83.70;;;;;;4978979;28;20188;-85
2021/05/25 01:00:49;;;;;;;4.60;4.30;;;15.50;83.90;;;;;;4985736;28;20200;-84
2021/05/25 01:03:20;;;;;;;5.13;4.57;;;15.40;83.90;;;;;;4985605;28;20205;-84
2021/05/25 01:05:50;;;;;;;4.93;4.30;;;15.40;83.90;;;;;;4993870;28;20220;-86
2021/05/25 01:08:19;;;;;;;5.67;4.83;;;15.40;84.00;;;;;;4998583;28;20402;-86
2021/05/25 01:10:50;;;;;;;6.67;4.70;;;15.30;84.00;;;;;;4994068;28;20216;-86
2021/05/25 01:13:20;;;;;;;5.30;4.80;;;15.40;84.20;;;;;;4983783;28;20263;-84
2021/05/25 01:15:50;;;;;;;5.87;4.73;;;15.40;84.30;;;;;;4998145;28;20400;-84
2021/05/25 01:18:19;;;;;;;7.70;4.93;;;15.30;84.50;;;;;;4994704;28;20208;-86
2021/05/25 01:20:50;;;;;;;7.80;4.50;;;15.30;84.60;;;;;;4996002;28;20227;-85
2021/05/25 01:23:20;;;;;;;5.63;4.90;;;15.30;84.80;;;;;;4997988;28;20544;-85
2021/05/25 01:25:49;;;;;;;5.33;4.83;;;15.30;85.70;;;;;;4997109;28;20387;-85
2021/05/25 01:28:21;;;;;;;6.17;5.10;;;15.30;86.10;;;;;;4998126;28;20200;-83
2021/05/25 01:30:52;;;;;;;7.03;5.20;;;15.20;86.80;;;;;;5001268;28;20196;-85
2021/05/25 01:33:23;;;;;;;5.57;5.13;;;15.10;86.50;;;;;;4986786;28;20385;-82
2021/05/25 01:35:52;;;;;;;6.60;5.17;;;15.10;87.50;;;;;;4996677;28;20251;-84
2021/05/25 01:38:26;;;;;;;6.10;5.50;;;15.00;87.90;;;;;;4988116;28;20208;-85
2021/05/25 01:40:57;;;;;;;7.50;5.73;;;15.00;87.80;;;;;;4993951;28;20383;-84
2021/05/25 01:43:26;;;;;;;6.07;5.40;;;14.90;88.10;;;;;;4985792;28;20371;-84
2021/05/25 01:45:56;;;;;;;6.17;5.57;;;14.90;87.70;;;;;;4983613;28;20283;-84
2021/05/25 01:48:24;;;;;;;6.03;5.53;;;14.80;87.80;;;;;;4983130;28;20208;-85
2021/05/25 01:50:53;;;;;;;5.83;5.33;;;14.80;87.80;;;;;;4980263;28;20285;-85
2021/05/25 01:53:26;;;;;;;7.20;5.70;;;14.70;87.80;;;;;;4980667;28;20438;-84
2021/05/25 01:55:57;;;;;;;6.67;5.97;;;14.70;88.00;;;;;;4974785;28;20543;-85
2021/05/25 01:58:29;;;;;;;6.10;5.60;;;14.70;88.60;;;;;;4979419;28;20570;-85
2021/05/25 02:00:58;;;;;;;7.37;5.67;;;14.70;89.00;;;;;;4976794;28;20291;-84
2021/05/25 02:03:27;;;;;;;8.07;6.30;;;14.60;88.90;;;;;;4980343;28;20217;-86
2021/05/25 02:05:57;;;;;;;6.97;6.10;;;14.60;89.80;;;;;;4980638;28;20204;-85
2021/05/25 02:08:27;;;;;;;6.53;5.90;;;14.60;90.00;;;;;;4980459;28;20207;-86
2021/05/25 02:10:59;;;;;;;6.53;5.90;;;14.50;90.30;;;;;;4977826;28;20213;-83
2021/05/25 02:13:30;;;;;;;8.93;6.30;;;14.40;90.90;;;;;;4983991;28;20661;-83
2021/05/25 02:16:00;;;;;;;7.83;6.43;;;14.30;91.00;;;;;;4990407;28;20205;-83
2021/05/25 02:18:30;;;;;;;6.97;6.27;;;14.20;92.40;;;;;;4982887;28;20209;-86
2021/05/25 02:21:02;;;;;;;7.00;6.30;;;14.10;93.30;;;;;;4985455;28;20262;-85
2021/05/25 02:23:32;;;;;;;10.17;7.03;;;14.10;94.00;;;;;;4986278;28;20774;-84
2021/05/25 02:26:01;;;;;;;11.07;7.13;;;14.00;95.40;;;;;;4978311;28;20213;-85
2021/05/25 02:28:29;;;;;;;7.80;6.97;;;14.00;96.10;;;;;;4979231;28;20215;-82
2021/05/25 02:30:58;;;;;;;7.93;7.23;;;13.90;97.30;;;;;;4976228;28;20216;-82
2021/05/25 02:33:27;;;;;;;9.50;7.93;;;13.90;98.10;;;;;;4980637;28;20573;-83
2021/05/25 02:35:56;;;;;;;9.73;7.10;;;13.80;99.30;;;;;;4976365;28;20208;-80
2021/05/25 02:38:27;;;;;;;7.60;6.90;;;13.80;99.90;;;;;;4987589;28;20211;-84
2021/05/25 02:40:56;;;;;;;8.07;7.37;;;13.70;99.90;;;;;;4981465;28;20246;-83
2021/05/25 02:43:26;;;;;;;10.10;7.77;;;13.60;99.90;;;;;;4979944;28;20200;-83
2021/05/25 02:45:55;;;;;;;11.77;7.30;;;13.60;99.90;;;;;;4977885;28;20234;-85
2021/05/25 02:48:24;;;;;;;8.50;7.70;;;13.50;99.90;;;;;;4977634;28;20211;-84
2021/05/25 02:50:52;;;;;;;8.97;8.07;;;13.40;99.90;;;;;;4976612;28;20721;-82
2021/05/25 02:53:22;;;;;;;8.53;7.63;;;13.40;99.90;;;;;;4969813;28;20553;-83
2021/05/25 02:55:51;;;;;;;8.43;7.73;;;13.40;99.90;;;;;;4973868;28;20216;-83
2021/05/25 02:58:20;;;;;;;8.90;8.00;;;13.30;99.90;;;;;;4964803;28;20546;-82
2021/05/25 03:00:49;;;;;;;8.80;7.80;;;13.40;99.90;;;;;;4971983;28;20299;-84
2021/05/25 03:03:17;;;;;;;8.73;7.97;;;13.30;99.90;;;;;;4970937;28;20215;-82
2021/05/25 03:05:47;;;;;;;9.40;8.27;;;13.30;99.90;;;;;;4978961;28;20204;-85
2021/05/25 03:08:17;;;;;;;11.57;8.93;;;13.20;99.90;;;;;;4971242;28;20205;-82
2021/05/25 03:10:48;;;;;;;9.30;8.50;;;13.20;99.90;;;;;;4969719;28;20252;-83
2021/05/25 03:13:17;;;;;;;8.77;8.00;;;13.20;99.90;;;;;;4973598;28;20236;-84
2021/05/25 03:15:50;;;;;;;9.90;8.83;;;13.10;99.90;;;;;;4990769;28;20516;-82
2021/05/25 03:18:19;;;;;;;10.20;9.17;;;13.10;99.90;;;;;;4977765;28;20205;-80
2021/05/25 03:20:50;;;;;;;9.73;8.70;;;13.20;99.90;;;;;;4979027;28;20279;-83
2021/05/25 03:23:19;;;;;;;9.80;8.93;;;13.20;99.90;;;;;;4973655;28;20207;-82
2021/05/25 03:25:49;;;;;;;10.07;9.03;;;13.10;99.90;;;;;;4976710;28;20204;-82
2021/05/25 03:28:18;;;;;;;9.07;8.27;;;13.10;99.90;;;;;;4990083;28;20230;-82
2021/05/25 03:30:47;;;;;;;11.63;9.90;;;13.20;99.90;;;;;;4992575;28;20364;-85
2021/05/25 03:33:17;;;;;;;10.27;9.13;;;13.10;99.90;;;;;;4997461;28;20211;-84
2021/05/25 03:35:45;;;;;;;9.93;8.93;;;13.10;99.90;;;;;;4981795;28;20272;-83
2021/05/25 03:38:13;;;;;;;9.53;8.73;;;13.10;99.90;;;;;;4988313;28;20208;-81
2021/05/25 03:40:41;;;;;;;9.33;8.53;;;13.10;99.90;;;;;;4989101;28;20232;-81
2021/05/25 03:43:09;;;;;;;11.07;9.50;;;13.10;99.90;;;;;;4992033;28;20208;-83
2021/05/25 03:45:38;;;;;;;10.67;9.67;;;13.10;99.90;;;;;;4985172;28;20480;-82
2021/05/25 03:48:08;;;;;;;9.83;9.03;;;13.10;99.90;;;;;;4991256;28;20267;-86
2021/05/25 03:50:36;;;;;;;9.87;8.83;;;13.10;99.90;;;;;;4979571;28;20984;-80
2021/05/25 03:53:04;;;;;;;10.63;9.10;;;13.00;99.90;;;;;;4989831;28;20197;-84
2021/05/25 03:55:49;;;;;;;9.97;8.93;;;13.10;99.90;;;;;;4983259;28;20212;-83
2021/05/25 04:01:04;;;;;;;10.17;9.13;;;13.10;99.90;;;;;;4981310;28;20232;-83
2021/05/25 04:03:34;;;;;;;9.80;8.87;;;13.20;99.90;;;;;;4974187;28;20208;-83
2021/05/25 04:06:02;;;;;;;10.10;9.20;;;13.20;99.90;;;;;;4975636;28;20239;-85
2021/05/25 04:08:31;;;;;;;9.53;8.73;;;13.20;99.90;;;;;;4973392;28;20207;-85
2021/05/25 04:10:59;;;;;;;9.00;8.27;;;13.20;99.90;;;;;;4973825;28;20200;-84
2021/05/25 04:13:29;;;;;;;10.37;9.03;;;13.20;99.90;;;;;;4977321;28;20373;-86
2021/05/25 04:16:00;;;;;;;12.47;9.27;;;13.20;99.90;;;;;;4973965;28;20208;-83
2021/05/25 04:18:30;;;;;;;13.37;9.80;;;13.20;99.90;;;;;;4972028;28;20308;-82
2021/05/25 04:20:59;;;;;;;11.43;10.40;;;13.20;99.90;;;;;;4980701;28;20628;-83
2021/05/25 04:23:28;;;;;;;11.10;9.97;;;13.20;99.90;;;;;;4976200;28;20196;-84
2021/05/25 04:25:56;;;;;;;11.67;10.57;;;13.30;99.90;;;;;;4973154;28;20212;-82
2021/05/25 04:28:26;;;;;;;11.77;10.07;;;13.40;99.90;;;;;;4973779;28;20351;-84
2021/05/25 04:30:54;;;;;;;11.57;9.93;;;13.40;99.90;;;;;;4973729;28;20234;-81
2021/05/25 04:33:22;;;;;;;11.60;10.40;;;13.50;99.90;;;;;;4977564;28;20236;-84
2021/05/25 04:35:50;;;;;;;10.60;9.70;;;13.40;99.90;;;;;;4981764;28;20216;-84
2021/05/25 04:38:20;;;;;;;10.93;9.83;;;13.40;99.90;;;;;;4982977;28;20180;-86
2021/05/25 04:40:48;;;;;;;11.27;9.77;;;13.40;99.90;;;;;;4988216;28;20262;-85
2021/05/25 04:43:16;;;;;;;12.60;9.70;;;13.40;99.90;;;;;;4980892;28;20200;-85
2021/05/25 04:45:46;;;;;;;9.70;8.70;;;13.40;99.90;;;;;;4988956;28;20197;-85
2021/05/25 04:48:16;;;;;;;10.53;9.30;;;13.40;99.90;;;;;;4982237;28;20223;-84
2021/05/25 04:50:45;;;;;;;11.63;9.13;;;13.40;99.90;;;;;;4986525;28;20204;-84
2021/05/25 04:53:13;;;;;;;10.80;8.93;;;13.40;99.90;;;;;;4978228;28;20228;-81
2021/05/25 04:55:45;;;;;;;9.67;8.77;;;13.40;99.90;;;;;;4978658;28;20218;-86
2021/05/25 04:58:16;;;;;;;9.33;8.43;;;13.50;99.90;;;;;;4979228;28;20509;-85
2021/05/25 05:00:45;;;;;;;9.77;8.13;;;13.50;99.90;;;;;;4987503;28;20237;-82
2021/05/25 05:03:13;;;;;;;9.73;8.70;;;13.50;99.90;;;;;;4975907;28;20216;-82
2021/05/25 05:05:41;;;;;;;9.03;8.13;;;13.50;99.90;;;;;;4981398;28;20213;-84
2021/05/25 05:08:09;;;;;;;8.80;8.00;;;13.50;99.90;;;;;;4977201;28;20208;-82
2021/05/25 05:10:40;;;;;;;8.77;7.97;;;13.60;99.90;;;;;;4987104;28;20737;-83
2021/05/25 05:13:09;;;;;;;8.80;7.80;;;13.60;99.90;;;;;;4981951;28;20209;-84
2021/05/25 05:15:38;;;;;;;9.23;8.33;;;13.70;99.90;;;;;;4980396;28;20200;-84
2021/05/25 05:18:06;;;;;;;8.40;7.60;;;13.60;99.90;;;;;;4984677;28;20212;-84
2021/05/25 05:20:42;;;;;;;8.43;7.63;;;13.70;99.90;;;;;;4985403;28;20228;-84
2021/05/25 05:23:10;;;;;;;8.37;7.57;;;13.60;99.90;;;;;;4983719;28;20513;-83
2021/05/25 05:25:39;;;;;;;7.90;7.27;;;13.70;99.90;;;;;;4987748;28;20201;-84
2021/05/25 05:28:07;;;;;;;8.37;7.57;;;13.70;99.90;;;;;;4980768;28;20219;-82
2021/05/25 05:30:36;;;;;;;8.60;7.77;;;13.60;99.90;;;;;;4967917;28;20747;-83
2021/05/25 05:33:06;;;;;;;8.53;7.73;;;13.70;99.90;;;;;;4968952;28;20239;-84
2021/05/25 05:35:34;;;;;;;8.40;7.60;;;13.70;99.90;;;;;;4970916;28;20499;-84
2021/05/25 05:38:03;;;;;;;7.77;7.07;;;13.70;99.90;;;;;;4971750;28;20223;-82
2021/05/25 05:40:35;;;;;;;7.97;7.07;;;13.70;99.90;;;;;;4970375;28;20248;-82
2021/05/25 05:43:08;;;;;;;8.50;7.70;;;13.70;99.90;;;;;;4966578;28;20444;-85
2021/05/25 05:45:38;;;;;;;9.00;7.67;;;13.80;99.90;;;;;;4979521;28;20294;-81
2021/05/25 05:48:07;;;;;;;7.90;6.90;;;13.80;99.90;;;;;;4979587;28;20246;-82
2021/05/25 05:50:36;;;;;;;8.40;7.40;;;13.70;99.90;;;;;;4975332;28;20201;-81
2021/05/25 05:53:04;;;;;;;9.10;8.00;;;13.70;99.90;;;;;;4973400;28;20204;-80
2021/05/25 05:55:32;;;;;;;10.37;8.13;;;13.70;99.90;;;;;;4982515;28;20207;-82
2021/05/25 05:58:00;;;;;;;8.17;7.43;;;13.80;99.90;;;;;;4987292;28;20199;-83
2021/05/25 06:00:28;;;;;;;8.10;7.40;;;13.70;99.90;;;;;;4964678;28;20591;-83
2021/05/25 06:02:57;;;;;;;9.40;7.60;;;13.70;99.90;;;;;;4976777;28;20543;-82
2021/05/25 06:05:26;;;;;;;8.33;7.53;;;13.70;99.90;;;;;;4963377;28;20232;-82
2021/05/25 06:07:54;;;;;;;8.33;7.33;;;13.80;99.90;;;;;;4967118;28;20527;-82
2021/05/25 06:10:22;;;;;;;9.37;8.03;;;13.70;99.90;;;;;;4980647;28;20192;-83
2021/05/25 06:12:50;;;;;;;8.53;7.63;;;13.80;99.90;;;;;;4978828;28;20209;-80
2021/05/25 06:15:18;;;;;;;8.60;7.70;;;13.80;99.90;;;;;;4984778;28;20184;-86
2021/05/25 06:17:46;;;;;;;7.80;6.67;;;13.90;99.90;;;;;;4979164;28;20432;-83
2021/05/25 06:20:16;;;;;;;9.57;7.37;;;13.90;99.90;;;;;;4980725;28;20539;-80
2021/05/25 06:22:45;;;;;;;7.30;6.70;;;14.00;99.90;;;;;;4974419;28;20239;-81
2021/05/25 06:25:16;;;;;;;7.23;6.53;;;14.00;99.90;;;;;;4976330;28;20281;-84
2021/05/25 06:27:46;;;;;;;7.80;7.00;;;14.00;99.90;;;;;;4978154;28;20561;-83
2021/05/25 06:30:17;;;;;;;7.77;6.97;;;14.10;99.90;;;;;;4977553;28;20547;-83
2021/05/25 06:32:45;;;;;;;7.83;7.10;;;14.10;99.90;;;;;;4970233;28;20725;-84
2021/05/25 06:35:16;;;;;;;10.67;6.83;;;14.10;99.90;;;;;;4970126;28;20216;-82
2021/05/25 06:37:44;;;;;;;7.67;6.93;;;14.10;99.90;;;;;;4975597;28;20201;-82
2021/05/25 06:40:13;;;;;;;7.63;6.83;;;14.10;99.90;;;;;;4979771;28;20192;-80
2021/05/25 06:42:42;;;;;;;10.23;6.63;;;14.20;99.90;;;;;;4979066;28;20196;-81
2021/05/25 06:45:11;;;;;;;7.03;6.20;;;14.20;99.90;;;;;;4974080;28;20209;-83
2021/05/25 06:47:40;;;;;;;8.20;6.80;;;14.20;99.90;;;;;;4979125;28;20391;-81
2021/05/25 06:50:09;;;;;;;7.17;6.47;;;14.20;99.90;;;;;;4978612;28;20224;-83
2021/05/25 06:52:39;;;;;;;6.77;6.17;;;14.20;99.90;;;;;;4978198;28;20918;-83
2021/05/25 06:55:09;;;;;;;6.93;6.00;;;14.20;99.90;;;;;;4978081;28;20204;-84
2021/05/25 06:57:42;;;;;;;8.50;6.27;;;14.20;99.90;;;;;;4970943;28;20212;-81
2021/05/25 07:00:12;;;;;;;7.87;7.00;;;14.20;99.90;;;;;;4976618;28;20208;-85
2021/05/25 07:02:40;;;;;;;7.63;6.93;;;14.20;99.90;;;;;;4978587;28;20464;-80
2021/05/25 07:05:10;;;;;;;8.50;7.50;;;14.20;99.90;;;;;;4982175;28;20231;-81
2021/05/25 07:07:41;;;;;;;7.53;6.73;;;14.20;99.90;;;;;;4981700;28;20204;-83
2021/05/25 07:10:10;;;;;;;8.87;6.83;;;14.20;99.90;;;;;;4979076;28;20240;-83
2021/05/25 07:12:39;;;;;;;7.70;6.57;;;14.30;99.90;;;;;;4968001;28;20474;-86
2021/05/25 07:15:09;;;;;;;9.57;6.80;;;14.30;99.90;;;;;;4979325;28;20211;-80
2021/05/25 07:17:45;;;;;;;7.60;6.90;;;14.40;99.90;;;;;;4968506;28;20205;-81
2021/05/25 07:20:14;;;;;;;8.03;7.17;;;14.40;99.90;;;;;;4955099;28;20377;-80
2021/05/25 07:22:43;;;;;;;7.70;6.90;;;14.40;99.90;;;;;;4961077;28;20232;-82
2021/05/25 07:25:12;;;;;;;7.17;6.57;;;14.40;99.90;;;;;;4974814;28;20543;-82
2021/05/25 07:27:40;;;;;;;6.67;6.10;;;14.60;99.90;;;;;;4956347;28;20204;-77
2021/05/25 07:30:10;;;;;;;12.77;6.17;;;14.60;99.90;;;;;;4937036;28;21346;-76
2021/05/25 07:32:38;;;;;;;7.20;6.13;;;14.80;99.90;;;;;;4924726;28;20228;-76
2021/05/25 07:35:07;;;;;;;7.83;6.23;;;14.80;99.90;;;;;;4928303;28;20472;-77
2021/05/25 07:37:35;;;;;;;7.33;6.40;;;15.00;99.90;;;;;;4934801;28;20368;-77
2021/05/25 07:40:06;;;;;;;6.27;5.77;;;15.10;99.90;;;;;;4931037;28;20216;-76
2021/05/25 07:42:34;;;;;;;7.13;6.07;;;15.10;99.90;;;;;;4927597;28;20228;-77
2021/05/25 07:45:02;;;;;;;6.60;6.00;;;15.30;99.90;;;;;;4927562;28;20747;-78
2021/05/25 07:47:30;;;;;;;6.00;5.17;;;15.40;99.90;;;;;;4936933;28;20205;-79
2021/05/25 07:50:12;;;;;;;5.97;5.40;;;15.50;99.90;;;;;;4933113;28;20408;-78
2021/05/25 07:52:41;;;;;;;5.67;5.17;;;15.50;99.90;;;;;;4928905;28;21734;-79
2021/05/25 07:55:11;;;;;;;5.97;5.47;;;15.70;99.90;;;;;;4921130;28;20426;-78
2021/05/25 07:57:40;;;;;;;5.80;5.30;;;15.80;99.90;;;;;;4930431;28;20940;-77
2021/05/25 08:00:12;;;;;;;5.63;5.13;;;16.10;99.90;;;;;;4921331;28;20632;-77
2021/05/25 08:02:40;;;;;;;5.53;5.03;;;16.40;99.90;;;;;;4926758;28;20228;-78
2021/05/25 08:05:10;;;;;;;7.00;4.97;;;16.60;98.10;;;;;;4923334;28;20567;-77
2021/05/25 08:07:39;;;;;;;5.43;4.90;;;16.80;96.00;;;;;;4925812;28;20695;-77
2021/05/25 08:10:11;;;;;;;6.80;4.73;;;17.00;95.90;;;;;;4926944;28;20475;-79
2021/05/25 08:12:39;;;;;;;5.27;4.60;;;17.20;94.20;;;;;;4935343;28;20408;-78
2021/05/25 08:15:10;;;;;;;4.63;4.23;;;17.40;95.00;;;;;;4933814;28;20686;-79
2021/05/25 08:17:50;;;;;;;5.20;4.33;;;17.40;93.90;;;;;;4934364;28;20217;-79
2021/05/25 08:20:20;;;;;;;4.47;4.07;;;17.70;93.70;;;;;;4938975;28;21106;-78
2021/05/25 08:23:11;;;;;;;4.10;3.70;;;18.00;93.80;;;;;;4929956;28;21063;-77
2021/05/25 08:25:43;;;;;;;4.40;4.00;;;18.20;91.50;;;;;;4928905;28;20200;-78
2021/05/25 08:28:12;;;;;;;5.03;4.30;;;18.40;91.80;;;;;;4940965;28;20211;-76
2021/05/25 08:30:42;;;;;;;4.80;3.83;;;18.50;91.30;;;;;;4927607;28;20213;-76
2021/05/25 08:33:14;;;;;;;4.53;4.10;;;18.50;90.40;;;;;;4927233;28;20528;-76
2021/05/25 08:35:46;;;;;;;4.90;3.97;;;18.30;90.80;;;;;;4929742;28;20305;-77
2021/05/25 08:38:16;;;;;;;4.93;3.70;;;18.00;90.80;;;;;;4920739;28;20835;-76
2021/05/25 08:40:45;;;;;;;4.27;3.90;;;17.60;91.10;;;;;;4929630;28;20410;-77
2021/05/25 08:43:13;;;;;;;5.90;3.90;;;17.50;92.30;;;;;;4929302;28;20236;-76
2021/05/25 08:45:42;;;;;;;4.07;3.60;;;17.40;92.00;;;;;;4925485;28;20209;-76
2021/05/25 08:48:11;;;;;;;4.20;3.80;;;17.40;92.00;;;;;;4937294;28;20442;-75
2021/05/25 08:50:51;;;;;;;4.40;3.87;;;17.30;91.70;;;;;;4926049;28;20676;-78
2021/05/25 08:53:19;;;;;;;5.43;4.67;;;17.20;92.20;;;;;;4935829;28;20741;-77
2021/05/25 08:55:50;;;;;;;4.53;4.13;;;17.10;92.80;;;;;;4926651;28;20197;-76
2021/05/25 08:58:19;;;;;;;4.50;3.70;;;17.10;92.90;;;;;;4925492;28;20208;-77
2021/05/25 09:00:48;;;;;;;5.73;4.10;;;17.10;91.90;;;;;;4929893;28;20239;-77
2021/05/25 09:03:16;;;;;;;4.43;4.03;;;17.00;92.40;;;;;;4940968;28;20343;-78
2021/05/25 09:05:57;;;;;;;4.50;4.10;;;17.10;92.70;;;;;;4932046;28;20204;-77
2021/05/25 09:08:25;;;;;;;4.30;3.50;;;17.00;92.50;;;;;;4938247;28;20606;-76
2021/05/25 09:10:59;;;;;;;4.57;4.10;;;16.80;92.00;;;;;;4934887;28;20249;-78
2021/05/25 09:13:27;;;;;;;5.10;4.53;;;16.70;92.50;;;;;;4935437;28;20514;-77
2021/05/25 09:15:58;;;;;;;5.10;4.60;;;16.70;93.20;;;;;;4941917;28;20593;-77
2021/05/25 09:18:28;;;;;;;7.13;5.90;;;16.60;92.80;;;;;;4939349;28;20670;-76
2021/05/25 09:20:58;;;;;;;5.30;4.80;;;16.60;92.90;;;;;;4938768;28;20395;-77
2021/05/25 09:23:44;;;;;;;4.40;4.00;;;16.50;93.40;;;;;;4939051;28;20274;-77
2021/05/25 09:26:16;;;;;;;5.50;4.13;;;16.40;92.60;;;;;;4936106;28;21201;-77
2021/05/25 09:28:55;;;;;;;5.10;4.50;;;16.30;92.40;;;;;;4947590;28;20362;-78
2021/05/25 09:31:26;;;;;;;5.00;4.60;;;16.20;92.30;;;;;;4934501;28;20240;-76
2021/05/25 09:34:08;;;;;;;5.77;5.17;;;16.20;92.90;;;;;;4937992;28;20302;-77
2021/05/25 09:36:57;;;;;;;5.80;5.30;;;16.20;92.50;;;;;;4936135;28;20702;-77
2021/05/25 09:39:26;;;;;;;5.57;5.07;;;16.10;92.70;;;;;;4939931;28;20479;-77
2021/05/25 09:41:59;;;;;;;6.33;5.77;;;16.20;92.80;;;;;;4937668;28;20595;-78
2021/05/25 09:44:28;;;;;;;7.10;6.10;;;16.20;92.70;;;;;;4944941;28;20294;-76
2021/05/25 09:46:58;;;;;;;6.67;6.07;;;16.40;92.10;;;;;;4937841;28;20827;-76
2021/05/25 09:49:26;;;;;;;6.87;6.33;;;16.50;91.70;;;;;;4930757;28;20414;-76
2021/05/25 09:52:04;;;;;;;6.83;6.23;;;16.70;91.80;;;;;;4929300;28;20268;-76
2021/05/25 09:54:33;;;;;;;8.10;7.30;;;17.10;90.80;;;;;;4929879;28;20633;-77
2021/05/25 09:57:03;;;;;;;6.80;6.20;;;17.20;90.10;;;;;;4927395;28;20239;-76
2021/05/25 09:59:32;;;;;;;6.67;6.03;;;17.60;90.00;;;;;;4923763;28;20231;-76
2021/05/25 10:02:17;;;;;;;6.57;6.07;;;17.60;89.20;;;;;;4931400;28;20236;-77
2021/05/25 10:04:59;;;;;;;7.30;6.60;;;17.80;89.40;;;;;;4940882;28;20208;-77
2021/05/25 10:07:28;;;;;;;7.30;6.60;;;18.00;89.30;;;;;;4938255;28;20779;-77
2021/05/25 10:09:57;;;;;;;6.93;6.23;;;18.00;89.10;;;;;;4951178;28;20394;-77
2021/05/25 10:12:28;;;;;;;7.10;6.50;;;18.00;89.30;;;;;;4952831;28;20425;-78
2021/05/25 10:14:57;;;;;;;7.57;6.77;;;18.10;88.90;;;;;;4943385;28;20211;-78
2021/05/25 10:17:42;;;;;;;11.00;6.60;;;18.20;89.20;;;;;;4950034;28;20517;-79
2021/05/25 10:20:12;;;;;;;9.30;7.20;;;18.50;87.40;;;;;;4950859;28;20361;-80
2021/05/25 10:22:41;;;;;;;7.90;7.10;;;18.70;87.10;;;;;;4945199;28;20236;-79
2021/05/25 10:25:12;;;;;;;7.33;6.73;;;18.70;87.00;;;;;;4959568;28;20825;-78
2021/05/25 10:27:42;;;;;;;7.40;6.80;;;18.70;86.80;;;;;;4954494;28;20336;-79
2021/05/25 10:30:31;;;;;;;7.67;6.90;;;18.80;86.60;;;;;;4933215;28;20208;-78
2021/05/25 10:33:25;;;;;;;7.40;6.70;;;19.00;86.20;;;;;;4946306;28;20643;-77
2021/05/25 10:35:58;;;;;;;6.87;6.30;;;19.10;85.90;;;;;;4941511;28;21431;-78
2021/05/25 10:38:28;;;;;;;7.50;6.70;;;19.40;86.00;;;;;;4936063;28;20524;-79
2021/05/25 10:41:00;;;;;;;7.43;6.67;;;19.60;85.50;;;;;;4935190;28;20196;-78
2021/05/25 10:43:45;;;;;;;6.63;5.93;;;19.80;84.80;;;;;;4935881;28;20227;-77
2021/05/25 10:46:25;;;;;;;6.87;6.27;;;19.80;84.30;;;;;;4926487;28;20214;-79
2021/05/25 10:49:13;;;;;;;6.47;5.90;;;20.10;83.70;;;;;;4946892;28;20459;-78
2021/05/25 10:52:16;;;;;;;6.90;6.30;;;20.10;83.40;;;;;;4947290;28;20883;-78
2021/05/25 10:54:58;;;;;;;6.63;6.00;;;20.20;83.40;;;;;;4954196;28;21029;-78
2021/05/25 10:57:51;;;;;;;6.50;5.97;;;20.10;83.60;;;;;;4950381;28;20212;-78
2021/05/25 11:00:29;;;;;;;6.77;6.17;;;20.00;83.40;;;;;;4955796;28;20971;-79
2021/05/25 11:03:00;;;;;;;7.97;7.27;;;19.80;83.40;;;;;;4953351;28;20607;-79
2021/05/25 11:05:54;;;;;;;6.85;6.28;;;19.70;83.80;;;;;;4961815;28;20268;-78
2021/05/25 11:08:33;;;;;;;7.40;6.80;;;20.00;83.70;;;;;;4960929;28;20451;-78
2021/05/25 11:11:10;;;;;;;6.25;5.75;;;20.10;83.70;;;;;;4965382;28;20254;-78
2021/05/25 11:13:41;;;;;;;5.57;5.10;;;20.30;84.00;;;;;;4945994;28;20531;-76
2021/05/25 11:16:13;;;;;;;4.37;3.97;;;20.30;82.90;;;;;;4940865;28;20208;-78
2021/05/25 11:18:46;;;;;;;4.40;4.10;;;20.20;82.80;;;;;;4932043;28;20806;-77
2021/05/25 11:22:00;;;;;;;4.33;4.00;;;20.40;82.90;;;;;;4945469;28;20274;-79
2021/05/25 11:24:32;;;;;;;4.30;3.88;;;20.40;81.90;;;;;;4939882;28;20282;-77
2021/05/25 11:27:05;;;;;;;4.20;3.73;;;20.50;81.60;;;;;;4935480;28;20204;-78
2021/05/25 11:29:34;;;;;;;3.87;3.30;;;20.40;81.70;;;;;;4939452;28;21140;-78
2021/05/25 11:32:13;;;;;;;3.70;3.40;;;20.40;81.10;;;;;;4939701;28;20200;-77
2021/05/25 11:34:42;;;;;;;5.50;3.50;;;20.30;80.80;;;;;;4929722;28;20207;-78
2021/05/25 11:37:13;;;;;;;3.90;3.50;;;20.40;81.20;;;;;;4947305;28;20246;-77
2021/05/25 11:39:41;;;;;;;4.05;3.55;;;20.60;81.40;;;;;;4940734;28;20224;-79
2021/05/25 11:42:12;;;;;;;4.43;4.00;;;20.70;81.20;;;;;;4938358;28;20235;-76
2021/05/25 11:44:43;;;;;;;4.65;3.50;;;20.70;80.70;;;;;;4943704;28;20810;-78
2021/05/25 11:47:12;;;;;;;3.92;3.30;;;20.80;80.50;;;;;;4940529;28;20295;-76
2021/05/25 11:49:44;;;;;;;3.60;3.30;;;20.70;80.90;;;;;;4912402;28;20821;-78
2021/05/25 11:52:20;;;;;;;3.50;3.20;;;20.60;81.00;;;;;;4903564;28;20478;-77
2021/05/25 11:54:53;;;;;;;6.97;3.58;;;20.90;80.80;;;;;;4911920;28;20235;-76
2021/05/25 11:57:31;;;;;;;3.17;2.88;;;21.40;80.60;;;;;;4909755;28;20208;-78
2021/05/25 12:00:03;;;;;;;3.25;2.95;;;21.60;79.20;;;;;;4904098;28;20852;-77
2021/05/25 12:02:33;;;;;;;4.03;3.00;;;21.60;79.10;;;;;;4906196;28;20563;-77
2021/05/25 12:05:08;;;;;;;2.97;2.70;;;21.60;79.00;;;;;;4910483;28;20364;-78
2021/05/25 12:07:38;;;;;;;2.90;2.70;;;21.40;77.90;;;;;;4911033;28;20212;-80
2021/05/25 12:10:09;;;;;;;3.15;2.80;;;21.00;78.10;;;;;;4908200;28;21357;-77
2021/05/25 12:12:40;;;;;;;3.10;2.83;;;20.70;77.60;;;;;;4906739;28;20614;-78
2021/05/25 12:15:14;;;;;;;4.10;3.00;;;20.30;78.00;;;;;;4909939;28;20230;-78
2021/05/25 12:17:45;;;;;;;3.07;2.77;;;20.00;78.30;;;;;;4909517;28;20707;-77
2021/05/25 12:20:17;;;;;;;3.53;2.80;;;20.00;78.60;;;;;;4899666;28;20968;-76
2021/05/25 12:22:48;;;;;;;3.80;3.00;;;20.00;79.40;;;;;;4905517;28;20366;-77
2021/05/25 12:25:25;;;;;;;4.33;2.90;;;20.00;79.20;;;;;;4909318;28;20677;-77
2021/05/25 12:28:04;;;;;;;3.17;2.73;;;20.00;79.30;;;;;;4905430;28;20239;-77
2021/05/25 12:30:38;;;;;;;3.70;3.40;;;20.00;79.40;;;;;;4901471;28;20515;-78
2021/05/25 12:33:07;;;;;;;3.80;2.83;;;19.90;79.60;;;;;;4898158;28;20208;-77
2021/05/25 12:35:37;;;;;;;3.53;3.23;;;19.80;79.30;;;;;;4922091;28;20694;-77
2021/05/25 12:38:09;;;;;;;3.63;3.27;;;19.70;79.00;;;;;;4940723;28;20201;-79
2021/05/25 12:40:38;;;;;;;3.87;3.10;;;19.60;79.20;;;;;;4958167;28;20330;-77
2021/05/25 12:43:21;;;;;;;3.50;3.20;;;19.50;79.60;;;;;;4949661;28;20240;-79
2021/05/25 12:45:51;;;;;;;4.77;3.07;;;19.60;79.50;;;;;;4951919;28;20212;-77
2021/05/25 12:48:35;;;;;;;3.97;3.37;;;19.60;79.70;;;;;;4943136;28;20203;-78
2021/05/25 12:51:03;;;;;;;3.60;3.30;;;19.70;79.80;;;;;;4963674;28;20506;-78
2021/05/25 12:53:46;;;;;;;3.43;3.07;;;19.70;79.60;;;;;;4946133;28;20458;-77
2021/05/25 12:56:17;;;;;;;4.10;3.10;;;19.70;80.10;;;;;;4947298;28;20215;-78
2021/05/25 12:58:48;;;;;;;3.60;3.30;;;19.80;79.70;;;;;;4943913;28;20309;-77
2021/05/25 13:01:28;;;;;;;3.70;3.40;;;19.80;79.80;;;;;;4937303;28;20215;-77
2021/05/25 13:04:24;;;;;;;3.33;3.03;;;19.80;79.20;;;;;;4946873;28;20258;-76
2021/05/25 13:06:55;;;;;;;3.40;3.00;;;19.60;79.60;;;;;;4949955;28;20668;-79
2021/05/25 13:09:36;;;;;;;3.60;3.30;;;19.50;79.90;;;;;;4959739;28;20200;-78